createdAt,value
2022-09-01T00:00:15.379Z,16.27
2022-09-01T00:01:15.483Z,16.27
2022-09-01T00:02:15.695Z,16.28
2022-09-01T00:03:15.755Z,16.30
2022-09-01T00:04:16.105Z,16.32
2022-09-01T00:05:15.996Z,16.34
2022-09-01T00:06:16.153Z,16.35
2022-09-01T00:07:16.255Z,16.35
2022-09-01T00:08:18.461Z,16.34
2022-09-01T00:09:16.523Z,16.33
2022-09-01T00:10:16.574Z,16.32
2022-09-01T00:11:16.664Z,16.33
2022-09-01T00:12:16.813Z,16.34
2022-09-01T00:13:16.914Z,16.35
2022-09-01T00:14:29.481Z,16.36
2022-09-01T00:15:18.183Z,16.36
2022-09-01T00:16:17.248Z,16.34
2022-09-01T00:17:17.321Z,16.33
2022-09-01T00:18:17.503Z,16.31
2022-09-01T00:19:17.703Z,16.29
2022-09-01T00:20:20.543Z,16.28
2022-09-01T00:21:17.843Z,16.27
2022-09-01T00:22:17.941Z,16.27
2022-09-01T00:23:18.092Z,16.27
2022-09-01T00:24:18.306Z,16.27
2022-09-01T00:25:18.421Z,16.27
2022-09-01T00:26:18.425Z,16.26
2022-09-01T00:27:18.536Z,16.26
2022-09-01T00:28:18.868Z,16.26
2022-09-01T00:29:18.841Z,16.25
2022-09-01T00:30:19.057Z,16.24
2022-09-01T00:31:19.136Z,16.23
2022-09-01T00:32:19.172Z,16.23
2022-09-01T00:33:19.270Z,16.23
2022-09-01T00:34:19.479Z,16.23
2022-09-01T00:35:19.518Z,16.24
2022-09-01T00:36:19.680Z,16.24
2022-09-01T00:37:19.777Z,16.25
2022-09-01T00:38:20.301Z,16.26
2022-09-01T00:39:20.210Z,16.27
2022-09-01T00:40:20.427Z,16.27
2022-09-01T00:41:20.319Z,16.27
2022-09-01T00:42:20.429Z,16.26
2022-09-01T00:43:20.529Z,16.26
2022-09-01T00:44:20.789Z,16.24
2022-09-01T00:45:20.918Z,16.22
2022-09-01T00:46:20.906Z,16.20
2022-09-01T00:47:21.045Z,16.18
2022-09-01T00:48:21.299Z,16.16
2022-09-01T00:49:21.277Z,16.14
2022-09-01T00:50:21.524Z,16.12
2022-09-01T00:51:21.585Z,16.09
2022-09-01T00:52:21.688Z,16.07
2022-09-01T00:53:21.836Z,16.04
2022-09-01T00:54:21.948Z,16.00
2022-09-01T00:55:22.096Z,15.97
2022-09-01T00:56:22.196Z,15.93
2022-09-01T00:57:22.285Z,15.90
2022-09-01T00:58:22.488Z,15.86
2022-09-01T00:59:22.563Z,15.82
2022-09-01T01:00:22.975Z,15.78
2022-09-01T01:01:22.910Z,15.75
2022-09-01T01:02:23.058Z,15.71
2022-09-01T01:03:23.114Z,15.68
2022-09-01T01:04:23.256Z,15.65
2022-09-01T01:05:23.487Z,15.63
2022-09-01T01:06:23.484Z,15.60
2022-09-01T01:07:23.585Z,15.57
2022-09-01T01:08:23.804Z,15.55
2022-09-01T01:09:23.864Z,15.53
2022-09-01T01:10:23.974Z,15.52
2022-09-01T01:11:24.240Z,15.51
2022-09-01T01:12:24.192Z,15.52
2022-09-01T01:13:24.290Z,15.53
2022-09-01T01:14:24.382Z,15.52
2022-09-01T01:15:24.520Z,15.51
2022-09-01T01:16:24.742Z,15.50
2022-09-01T01:17:24.773Z,15.48
2022-09-01T01:18:24.913Z,15.45
2022-09-01T01:19:25.071Z,15.43
2022-09-01T01:20:25.160Z,15.40
2022-09-01T01:21:25.332Z,15.37
2022-09-01T01:22:25.381Z,15.34
2022-09-01T01:23:25.472Z,15.31
2022-09-01T01:24:25.615Z,15.28
2022-09-01T01:25:25.721Z,15.26
2022-09-01T01:26:25.957Z,15.24
2022-09-01T01:27:26.037Z,15.22
2022-09-01T01:28:26.080Z,15.20
2022-09-01T01:29:26.228Z,15.18
2022-09-01T01:30:26.372Z,15.16
2022-09-01T01:31:26.714Z,15.14
2022-09-01T01:32:26.788Z,15.12
2022-09-01T01:33:26.730Z,15.10
2022-09-01T01:34:26.841Z,15.09
2022-09-01T01:35:26.979Z,15.07
2022-09-01T01:36:27.308Z,15.06
2022-09-01T01:37:27.187Z,15.05
2022-09-01T01:38:27.398Z,15.03
2022-09-01T01:39:27.433Z,15.02
2022-09-01T01:40:27.616Z,15.01
2022-09-01T01:41:27.808Z,14.99
2022-09-01T01:42:27.860Z,14.98
2022-09-01T01:43:27.948Z,14.97
2022-09-01T01:44:28.105Z,14.96
2022-09-01T01:45:28.208Z,14.95
2022-09-01T01:46:28.527Z,14.94
2022-09-01T01:47:28.596Z,14.93
2022-09-01T01:48:28.576Z,14.92
2022-09-01T01:49:28.676Z,14.91
2022-09-01T01:50:28.816Z,14.91
2022-09-01T01:51:28.895Z,14.92
2022-09-01T01:52:29.186Z,14.93
2022-09-01T01:53:29.125Z,14.94
2022-09-01T01:54:29.253Z,14.95
2022-09-01T01:55:29.356Z,14.97
2022-09-01T01:56:29.444Z,14.98
2022-09-01T01:57:29.715Z,14.98
2022-09-01T01:58:29.705Z,14.99
2022-09-01T01:59:29.820Z,15.00
2022-09-01T02:00:30.400Z,15.00
2022-09-01T02:01:30.125Z,15.01
2022-09-01T02:02:30.381Z,15.01
2022-09-01T02:03:30.331Z,15.01
2022-09-01T02:04:30.393Z,15.01
2022-09-01T02:05:30.532Z,15.01
2022-09-01T02:06:30.674Z,14.99
2022-09-01T02:07:32.995Z,14.97
2022-09-01T02:08:30.951Z,14.94
2022-09-01T02:09:31.032Z,14.91
2022-09-01T02:10:31.163Z,14.88
2022-09-01T02:11:31.319Z,14.84
2022-09-01T02:12:31.562Z,14.81
2022-09-01T02:13:31.621Z,14.78
2022-09-01T02:14:31.692Z,14.75
2022-09-01T02:15:31.798Z,14.72
2022-09-01T02:16:31.965Z,14.69
2022-09-01T02:17:31.991Z,14.67
2022-09-01T02:18:32.282Z,14.64
2022-09-01T02:19:32.270Z,14.62
2022-09-01T02:20:32.380Z,14.60
2022-09-01T02:21:32.521Z,14.57
2022-09-01T02:22:32.610Z,14.55
2022-09-01T02:23:32.891Z,14.54
2022-09-01T02:24:32.889Z,14.52
2022-09-01T02:25:32.996Z,14.51
2022-09-01T02:26:33.128Z,14.50
2022-09-01T02:27:33.278Z,14.48
2022-09-01T02:28:33.529Z,14.47
2022-09-01T02:29:33.462Z,14.45
2022-09-01T02:30:34.639Z,14.44
2022-09-01T02:31:33.705Z,14.42
2022-09-01T02:32:33.858Z,14.40
2022-09-01T02:33:34.097Z,14.38
2022-09-01T02:34:34.107Z,14.36
2022-09-01T02:35:34.199Z,14.34
2022-09-01T02:36:34.346Z,14.32
2022-09-01T02:37:34.460Z,14.31
2022-09-01T02:38:34.726Z,14.30
2022-09-01T02:39:34.666Z,14.29
2022-09-01T02:40:34.810Z,14.28
2022-09-01T02:41:34.868Z,14.28
2022-09-01T02:42:34.963Z,14.28
2022-09-01T02:43:35.176Z,14.27
2022-09-01T02:44:39.466Z,14.25
2022-09-01T02:45:36.397Z,14.23
2022-09-01T02:46:35.505Z,14.22
2022-09-01T02:47:35.597Z,14.21
2022-09-01T02:48:35.829Z,14.20
2022-09-01T02:49:35.834Z,14.18
2022-09-01T02:50:35.916Z,14.17
2022-09-01T02:51:36.049Z,14.16
2022-09-01T02:52:36.125Z,14.14
2022-09-01T02:53:36.423Z,14.12
2022-09-01T02:54:36.429Z,14.10
2022-09-01T02:55:36.556Z,14.08
2022-09-01T02:56:36.703Z,14.06
2022-09-01T02:57:36.784Z,14.04
2022-09-01T02:58:37.024Z,14.02
2022-09-01T02:59:39.634Z,14.01
2022-09-01T03:00:38.093Z,13.99
2022-09-01T03:01:37.251Z,13.97
2022-09-01T03:02:37.342Z,13.95
2022-09-01T03:03:37.562Z,13.94
2022-09-01T03:04:37.610Z,13.93
2022-09-01T03:05:37.669Z,13.92
2022-09-01T03:06:37.821Z,13.91
2022-09-01T03:07:37.932Z,13.91
2022-09-01T03:08:38.140Z,13.92
2022-09-01T03:09:38.251Z,13.93
2022-09-01T03:10:38.310Z,13.95
2022-09-01T03:11:38.408Z,13.96
2022-09-01T03:12:38.540Z,13.98
2022-09-01T03:13:38.819Z,14.00
2022-09-01T03:14:38.800Z,14.02
2022-09-01T03:15:38.929Z,14.04
2022-09-01T03:16:39.086Z,14.05
2022-09-01T03:17:39.184Z,14.06
2022-09-01T03:18:40.069Z,14.06
2022-09-01T03:19:39.408Z,14.05
2022-09-01T03:20:39.561Z,14.04
2022-09-01T03:21:39.711Z,14.02
2022-09-01T03:22:39.887Z,14.01
2022-09-01T03:23:39.991Z,13.99
2022-09-01T03:24:40.085Z,13.98
2022-09-01T03:25:40.245Z,13.96
2022-09-01T03:26:40.368Z,13.94
2022-09-01T03:27:40.518Z,13.92
2022-09-01T03:28:40.807Z,13.91
2022-09-01T03:29:40.748Z,13.91
2022-09-01T03:30:40.897Z,13.89
2022-09-01T03:31:41.065Z,13.87
2022-09-01T03:32:41.186Z,13.86
2022-09-01T03:33:41.456Z,13.84
2022-09-01T03:34:41.442Z,13.82
2022-09-01T03:35:41.586Z,13.80
2022-09-01T03:36:41.737Z,13.79
2022-09-01T03:37:42.846Z,13.77
2022-09-01T03:38:42.174Z,13.75
2022-09-01T03:39:42.242Z,13.73
2022-09-01T03:40:42.295Z,13.71
2022-09-01T03:41:42.363Z,13.69
2022-09-01T03:42:42.463Z,13.67
2022-09-01T03:43:45.853Z,13.65
2022-09-01T03:44:42.705Z,13.63
2022-09-01T03:45:42.901Z,13.60
2022-09-01T03:46:43.075Z,13.59
2022-09-01T03:47:43.102Z,13.58
2022-09-01T03:48:43.333Z,13.57
2022-09-01T03:49:43.425Z,13.56
2022-09-01T03:50:43.433Z,13.55
2022-09-01T03:51:43.532Z,13.53
2022-09-01T03:52:43.655Z,13.52
2022-09-01T03:53:43.771Z,13.51
2022-09-01T03:54:43.936Z,13.50
2022-09-01T03:55:43.989Z,13.49
2022-09-01T03:56:44.081Z,13.48
2022-09-01T03:57:44.181Z,13.47
2022-09-01T03:58:44.323Z,13.46
2022-09-01T03:59:44.711Z,13.45
2022-09-01T04:00:48.687Z,13.44
2022-09-01T04:01:44.702Z,13.43
2022-09-01T04:02:44.800Z,13.43
2022-09-01T04:03:45.930Z,13.42
2022-09-01T04:04:45.091Z,13.42
2022-09-01T04:05:45.280Z,13.41
2022-09-01T04:06:45.278Z,13.40
2022-09-01T04:07:45.379Z,13.38
2022-09-01T04:08:45.467Z,13.37
2022-09-01T04:09:45.828Z,13.35
2022-09-01T04:10:45.729Z,13.35
2022-09-01T04:11:46.158Z,13.33
2022-09-01T04:12:45.978Z,13.32
2022-09-01T04:13:46.147Z,13.31
2022-09-01T04:14:46.422Z,13.30
2022-09-01T04:15:46.398Z,13.29
2022-09-01T04:16:46.585Z,13.29
2022-09-01T04:17:46.627Z,13.28
2022-09-01T04:18:46.737Z,13.28
2022-09-01T04:19:46.984Z,13.28
2022-09-01T04:20:47.037Z,13.29
2022-09-01T04:21:47.086Z,13.29
2022-09-01T04:22:47.229Z,13.30
2022-09-01T04:23:47.375Z,13.31
2022-09-01T04:24:47.705Z,13.32
2022-09-01T04:25:47.643Z,13.33
2022-09-01T04:26:47.755Z,13.33
2022-09-01T04:27:47.854Z,13.32
2022-09-01T04:28:48.014Z,13.32
2022-09-01T04:29:48.201Z,13.31
2022-09-01T04:30:48.403Z,13.30
2022-09-01T04:31:48.414Z,13.29
2022-09-01T04:32:48.512Z,13.27
2022-09-01T04:33:48.607Z,13.26
2022-09-01T04:34:48.903Z,13.25
2022-09-01T04:35:48.883Z,13.25
2022-09-01T04:36:50.005Z,13.26
2022-09-01T04:37:50.072Z,13.26
2022-09-01T04:38:49.215Z,13.27
2022-09-01T04:39:53.695Z,13.28
2022-09-01T04:40:50.542Z,13.29
2022-09-01T04:41:49.552Z,13.30
2022-09-01T04:42:49.642Z,13.30
2022-09-01T04:43:49.766Z,13.31
2022-09-01T04:44:49.901Z,13.32
2022-09-01T04:45:50.134Z,13.33
2022-09-01T04:46:50.140Z,13.34
2022-09-01T04:47:50.250Z,13.36
2022-09-01T04:48:50.358Z,13.38
2022-09-01T04:49:50.480Z,13.41
2022-09-01T04:50:50.711Z,13.44
2022-09-01T04:51:53.596Z,13.47
2022-09-01T04:52:50.900Z,13.49
2022-09-01T04:53:50.988Z,13.51
2022-09-01T04:54:51.089Z,13.54
2022-09-01T04:55:51.319Z,13.56
2022-09-01T04:56:51.475Z,13.58
2022-09-01T04:57:51.450Z,13.60
2022-09-01T04:58:51.609Z,13.61
2022-09-01T04:59:51.728Z,13.62
2022-09-01T05:00:52.259Z,13.62
2022-09-01T05:01:51.985Z,13.62
2022-09-01T05:02:52.071Z,13.62
2022-09-01T05:03:52.167Z,13.62
2022-09-01T05:04:52.308Z,13.62
2022-09-01T05:05:52.687Z,13.62
2022-09-01T05:06:52.535Z,13.62
2022-09-01T05:07:52.636Z,13.63
2022-09-01T05:08:52.774Z,13.63
2022-09-01T05:09:52.892Z,13.63
2022-09-01T05:10:53.171Z,13.64
2022-09-01T05:11:53.105Z,13.63
2022-09-01T05:12:53.224Z,13.64
2022-09-01T05:13:53.336Z,13.65
2022-09-01T05:14:53.455Z,13.65
2022-09-01T05:15:53.642Z,13.65
2022-09-01T05:16:53.664Z,13.65
2022-09-01T05:17:53.804Z,13.65
2022-09-01T05:18:53.964Z,13.66
2022-09-01T05:19:54.074Z,13.67
2022-09-01T05:20:54.263Z,13.68
2022-09-01T05:21:54.413Z,13.70
2022-09-01T05:22:54.403Z,13.72
2022-09-01T05:23:54.563Z,13.73
2022-09-01T05:24:55.004Z,13.74
2022-09-01T05:25:54.990Z,13.74
2022-09-01T05:26:54.920Z,13.76
2022-09-01T05:27:55.033Z,13.77
2022-09-01T05:28:55.141Z,13.79
2022-09-01T05:29:55.268Z,13.81
2022-09-01T05:30:55.452Z,13.83
2022-09-01T05:31:55.591Z,13.87
2022-09-01T05:32:55.622Z,13.90
2022-09-01T05:33:55.792Z,13.93
2022-09-01T05:34:55.890Z,13.97
2022-09-01T05:35:57.168Z,14.01
2022-09-01T05:36:56.140Z,14.04
2022-09-01T05:37:56.351Z,14.08
2022-09-01T05:38:56.357Z,14.12
2022-09-01T05:39:56.460Z,14.16
2022-09-01T05:40:56.599Z,14.22
2022-09-01T05:41:56.719Z,14.28
2022-09-01T05:42:56.930Z,14.35
2022-09-01T05:44:00.527Z,14.40
2022-09-01T05:44:57.099Z,14.47
2022-09-01T05:46:06.647Z,14.54
2022-09-01T05:46:58.413Z,14.61
2022-09-01T05:47:57.687Z,14.69
2022-09-01T05:48:57.635Z,14.78
2022-09-01T05:49:57.718Z,14.88
2022-09-01T05:50:57.818Z,14.98
2022-09-01T05:51:57.957Z,15.08
2022-09-01T05:52:58.211Z,15.19
2022-09-01T05:53:58.297Z,15.30
2022-09-01T05:54:58.367Z,15.39
2022-09-01T05:55:58.466Z,15.48
2022-09-01T05:57:05.137Z,15.56
2022-09-01T05:57:59.825Z,15.64
2022-09-01T05:59:59.944Z,15.81
2022-09-01T06:00:59.071Z,15.89
2022-09-01T06:01:59.317Z,15.98
2022-09-01T06:02:59.420Z,16.07
2022-09-01T06:03:59.526Z,16.15
2022-09-01T06:04:59.516Z,16.24
2022-09-01T06:05:59.616Z,16.33
2022-09-01T06:07:08.419Z,16.41
2022-09-01T06:08:00.892Z,16.48
2022-09-01T06:09:00.204Z,16.54
2022-09-01T06:10:00.227Z,16.61
2022-09-01T06:11:00.274Z,16.69
2022-09-01T06:12:00.423Z,16.77
2022-09-01T06:13:00.641Z,16.85
2022-09-01T06:14:00.745Z,16.93
2022-09-01T06:15:00.743Z,17.01
2022-09-01T06:16:00.899Z,17.11
2022-09-01T06:17:01.093Z,17.22
2022-09-01T06:18:01.123Z,17.32
2022-09-01T06:19:01.285Z,17.40
2022-09-01T06:20:01.463Z,17.47
2022-09-01T06:21:01.464Z,17.54
2022-09-01T06:22:01.586Z,17.63
2022-09-01T06:23:01.696Z,17.73
2022-09-01T06:24:01.915Z,17.84
2022-09-01T06:25:02.975Z,17.91
2022-09-01T06:26:02.052Z,17.97
2022-09-01T06:27:02.172Z,18.02
2022-09-01T06:28:02.264Z,18.08
2022-09-01T06:29:02.442Z,18.13
2022-09-01T06:30:02.491Z,18.19
2022-09-01T06:31:02.621Z,18.24
2022-09-01T06:32:02.723Z,18.26
2022-09-01T06:33:02.909Z,18.27
2022-09-01T06:34:03.055Z,18.29
2022-09-01T06:35:03.291Z,18.30
2022-09-01T06:36:03.293Z,18.28
2022-09-01T06:37:03.415Z,18.28
2022-09-01T06:38:03.516Z,18.32
2022-09-01T06:39:03.682Z,18.39
2022-09-01T06:40:03.810Z,18.48
2022-09-01T06:41:03.844Z,18.56
2022-09-01T06:42:06.057Z,18.60
2022-09-01T06:43:04.031Z,18.59
2022-09-01T06:44:04.330Z,18.57
2022-09-01T06:45:04.490Z,18.50
2022-09-01T06:46:04.437Z,18.43
2022-09-01T06:47:04.580Z,18.41
2022-09-01T06:48:04.647Z,18.42
2022-09-01T06:49:04.868Z,18.42
2022-09-01T06:50:04.910Z,18.45
2022-09-01T06:51:21.862Z,18.50
2022-09-01T06:52:06.373Z,18.53
2022-09-01T06:54:10.852Z,18.56
2022-09-01T06:55:07.879Z,18.63
2022-09-01T06:56:05.641Z,18.76
2022-09-01T06:58:07.166Z,19.01
2022-09-01T06:59:06.340Z,19.10
2022-09-01T07:00:06.116Z,19.17
2022-09-01T07:01:06.287Z,19.25
2022-09-01T07:02:06.448Z,19.33
2022-09-01T07:03:06.517Z,19.34
2022-09-01T07:04:12.776Z,19.27
2022-09-01T07:05:07.799Z,19.24
2022-09-01T07:06:06.951Z,19.29
2022-09-01T07:08:08.187Z,19.39
2022-09-01T07:10:23.727Z,19.54
2022-09-01T07:12:08.911Z,19.65
2022-09-01T07:12:25.088Z,19.74
2022-09-01T07:13:08.766Z,19.82
2022-09-01T07:14:15.859Z,19.93
2022-09-01T07:17:24.567Z,20.25
2022-09-01T07:18:09.387Z,20.33
2022-09-01T07:19:08.497Z,20.39
2022-09-01T07:20:24.480Z,20.43
2022-09-01T07:21:38.786Z,20.44
2022-09-01T07:22:35.254Z,20.46
2022-09-01T07:23:09.991Z,20.53
2022-09-01T07:24:10.713Z,20.62
2022-09-01T07:25:11.769Z,20.66
2022-09-01T07:26:09.414Z,20.65
2022-09-01T07:27:09.625Z,20.54
2022-09-01T07:28:09.595Z,20.34
2022-09-01T07:29:09.705Z,20.17
2022-09-01T07:30:09.826Z,20.11
2022-09-01T07:35:11.569Z,19.84
2022-09-01T07:36:26.860Z,19.93
2022-09-01T07:42:59.454Z,19.44
2022-09-01T07:43:12.424Z,20.57
2022-09-01T07:44:11.554Z,20.63
2022-09-01T07:45:28.014Z,20.70
2022-09-01T07:47:51.786Z,20.71
2022-09-01T07:48:36.093Z,20.74
2022-09-01T07:50:37.505Z,20.87
2022-09-01T07:52:13.699Z,21.00
2022-09-01T07:53:12.918Z,20.92
2022-09-01T07:54:12.833Z,20.81
2022-09-01T07:55:12.943Z,20.73
2022-09-01T07:56:13.054Z,20.71
2022-09-01T07:57:13.401Z,20.77
2022-09-01T07:58:13.308Z,20.86
2022-09-01T07:59:15.344Z,20.97
2022-09-01T08:00:13.492Z,21.00
2022-09-01T08:01:13.592Z,20.99
2022-09-01T08:02:13.985Z,20.97
2022-09-01T08:03:14.002Z,20.91
2022-09-01T08:04:13.962Z,20.87
2022-09-01T08:05:14.054Z,20.86
2022-09-01T08:06:14.234Z,20.83
2022-09-01T08:07:15.960Z,20.81
2022-09-01T08:08:24.998Z,20.82
2022-09-01T08:09:32.812Z,20.82
2022-09-01T08:10:20.296Z,20.77
2022-09-01T08:11:14.812Z,20.72
2022-09-01T08:12:14.905Z,20.75
2022-09-01T08:13:15.707Z,20.84
2022-09-01T08:14:18.272Z,20.93
2022-09-01T08:15:40.409Z,21.04
2022-09-01T08:16:16.425Z,21.19
2022-09-01T08:17:18.003Z,21.35
2022-09-01T08:18:16.724Z,21.47
2022-09-01T08:19:16.924Z,21.59
2022-09-01T08:20:15.910Z,21.72
2022-09-01T08:21:16.002Z,21.82
2022-09-01T08:22:16.461Z,21.82
2022-09-01T08:23:16.313Z,21.82
2022-09-01T08:24:16.440Z,21.86
2022-09-01T08:25:16.541Z,21.92
2022-09-01T08:26:16.651Z,22.01
2022-09-01T08:27:16.863Z,22.08
2022-09-01T08:28:17.224Z,22.08
2022-09-01T08:29:18.001Z,22.07
2022-09-01T08:30:17.152Z,22.08
2022-09-01T08:31:17.280Z,22.06
2022-09-01T08:32:17.564Z,22.05
2022-09-01T08:33:17.503Z,22.11
2022-09-01T08:34:17.641Z,22.19
2022-09-01T08:35:17.791Z,22.25
2022-09-01T08:36:21.594Z,22.20
2022-09-01T08:37:19.288Z,22.10
2022-09-01T08:38:18.157Z,22.01
2022-09-01T08:39:18.230Z,21.91
2022-09-01T08:40:18.457Z,21.90
2022-09-01T08:41:18.425Z,21.94
2022-09-01T08:42:18.660Z,22.02
2022-09-01T08:43:18.850Z,22.10
2022-09-01T08:44:19.323Z,22.19
2022-09-01T08:45:18.962Z,22.28
2022-09-01T08:46:19.087Z,22.36
2022-09-01T08:47:28.694Z,22.38
2022-09-01T08:49:09.852Z,22.35
2022-09-01T08:49:28.152Z,22.26
2022-09-01T08:50:20.531Z,22.17
2022-09-01T08:51:20.517Z,22.11
2022-09-01T08:52:19.822Z,22.12
2022-09-01T08:53:20.579Z,22.19
2022-09-01T08:54:29.276Z,22.27
2022-09-01T08:55:22.044Z,22.34
2022-09-01T08:56:20.328Z,22.39
2022-09-01T08:57:20.439Z,22.35
2022-09-01T08:58:20.684Z,22.24
2022-09-01T08:59:20.801Z,22.13
2022-09-01T09:00:20.850Z,22.10
2022-09-01T09:01:20.976Z,22.17
2022-09-01T09:02:21.111Z,22.25
2022-09-01T09:03:21.234Z,22.29
2022-09-01T09:04:21.488Z,22.33
2022-09-01T09:05:21.448Z,22.35
2022-09-01T09:06:21.562Z,22.35
2022-09-01T09:07:21.649Z,22.36
2022-09-01T09:08:21.808Z,22.42
2022-09-01T09:09:32.352Z,22.58
2022-09-01T09:10:23.058Z,22.80
2022-09-01T09:11:22.191Z,23.02
2022-09-01T09:12:22.369Z,23.12
2022-09-01T09:13:22.518Z,23.10
2022-09-01T09:14:22.893Z,23.07
2022-09-01T09:15:22.767Z,23.02
2022-09-01T09:16:22.934Z,22.98
2022-09-01T09:17:22.958Z,23.00
2022-09-01T09:18:39.223Z,23.01
2022-09-01T09:19:24.298Z,23.03
2022-09-01T09:20:23.336Z,23.08
2022-09-01T09:21:23.457Z,23.17
2022-09-01T09:22:23.597Z,23.26
2022-09-01T09:23:23.850Z,23.37
2022-09-01T09:24:23.827Z,23.50
2022-09-01T09:25:23.926Z,23.57
2022-09-01T09:26:24.066Z,23.56
2022-09-01T09:27:24.215Z,23.55
2022-09-01T09:28:25.683Z,23.57
2022-09-01T09:29:24.488Z,23.55
2022-09-01T09:30:24.829Z,23.53
2022-09-01T09:31:24.756Z,23.51
2022-09-01T09:32:35.510Z,23.51
2022-09-01T09:33:47.847Z,23.55
2022-09-01T09:34:26.285Z,23.60
2022-09-01T09:35:25.215Z,23.66
2022-09-01T09:36:25.324Z,23.75
2022-09-01T09:37:25.445Z,23.80
2022-09-01T09:38:25.566Z,23.83
2022-09-01T09:39:25.656Z,23.92
2022-09-01T09:40:26.109Z,24.01
2022-09-01T09:41:27.160Z,24.03
2022-09-01T09:42:29.891Z,23.96
2022-09-01T09:43:28.203Z,23.85
2022-09-01T09:44:26.347Z,23.85
2022-09-01T09:45:26.557Z,23.92
2022-09-01T09:46:26.667Z,24.01
2022-09-01T09:47:42.813Z,24.12
2022-09-01T09:48:28.925Z,24.19
2022-09-01T09:49:35.212Z,24.19
2022-09-01T09:50:28.233Z,24.10
2022-09-01T09:51:28.915Z,23.99
2022-09-01T09:52:27.285Z,23.85
2022-09-01T09:53:27.383Z,23.74
2022-09-01T09:54:27.606Z,23.75
2022-09-01T09:55:27.667Z,23.79
2022-09-01T09:56:27.765Z,23.83
2022-09-01T09:57:27.905Z,23.86
2022-09-01T09:58:28.013Z,23.85
2022-09-01T09:59:53.650Z,23.87
2022-09-01T10:00:29.268Z,23.89
2022-09-01T10:01:28.467Z,23.91
2022-09-01T10:02:28.554Z,23.94
2022-09-01T10:03:29.093Z,23.98
2022-09-01T10:04:28.873Z,24.02
2022-09-01T10:05:30.057Z,24.05
2022-09-01T10:06:28.957Z,24.09
2022-09-01T10:07:29.129Z,24.15
2022-09-01T10:08:29.254Z,24.25
2022-09-01T10:09:29.583Z,24.33
2022-09-01T10:10:29.513Z,24.32
2022-09-01T10:11:35.403Z,24.26
2022-09-01T10:12:30.792Z,24.18
2022-09-01T10:13:32.453Z,24.07
2022-09-01T10:14:51.968Z,24.00
2022-09-01T10:15:31.252Z,24.02
2022-09-01T10:16:32.124Z,24.05
2022-09-01T10:17:30.498Z,24.08
2022-09-01T10:18:30.560Z,24.11
2022-09-01T10:19:35.545Z,24.19
2022-09-01T10:20:31.801Z,24.24
2022-09-01T10:21:30.904Z,24.15
2022-09-01T10:22:32.848Z,24.02
2022-09-01T10:23:31.670Z,23.89
2022-09-01T10:24:31.256Z,23.77
2022-09-01T10:25:32.491Z,23.68
2022-09-01T10:26:31.451Z,23.58
2022-09-01T10:27:31.732Z,23.54
2022-09-01T10:28:31.740Z,23.58
2022-09-01T10:29:34.790Z,23.63
2022-09-01T10:30:32.098Z,23.66
2022-09-01T10:31:32.753Z,23.68
2022-09-01T10:32:38.261Z,23.61
2022-09-01T10:33:33.402Z,23.51
2022-09-01T10:34:32.520Z,23.41
2022-09-01T10:35:32.620Z,23.36
2022-09-01T10:36:32.719Z,23.39
2022-09-01T10:37:32.957Z,23.49
2022-09-01T10:38:33.250Z,23.64
2022-09-01T10:39:36.795Z,23.73
2022-09-01T10:40:34.246Z,23.78
2022-09-01T10:41:35.698Z,23.87
2022-09-01T10:42:33.628Z,23.94
2022-09-01T10:43:36.229Z,23.89
2022-09-01T10:44:33.659Z,23.74
2022-09-01T10:45:33.758Z,23.65
2022-09-01T10:46:42.263Z,23.70
2022-09-01T10:47:35.112Z,23.86
2022-09-01T10:48:46.278Z,24.01
2022-09-01T10:49:35.260Z,24.11
2022-09-01T10:50:35.825Z,24.21
2022-09-01T10:51:38.257Z,24.28
2022-09-01T10:52:35.289Z,24.30
2022-09-01T10:53:34.918Z,24.27
2022-09-01T10:54:37.238Z,24.25
2022-09-01T10:55:34.999Z,24.29
2022-09-01T10:56:36.540Z,24.34
2022-09-01T10:57:35.227Z,24.41
2022-09-01T10:59:41.901Z,24.46
2022-09-01T11:00:37.250Z,24.47
2022-09-01T11:01:47.860Z,24.52
2022-09-01T11:02:42.352Z,24.63
2022-09-01T11:03:47.110Z,24.73
2022-09-01T11:04:37.125Z,24.78
2022-09-01T11:05:36.146Z,24.77
2022-09-01T11:06:36.315Z,24.80
2022-09-01T11:08:00.088Z,24.83
2022-09-01T11:08:37.677Z,24.87
2022-09-01T11:09:36.666Z,24.98
2022-09-01T11:10:36.805Z,25.11
2022-09-01T11:11:36.995Z,25.18
2022-09-01T11:12:37.056Z,25.15
2022-09-01T11:13:37.144Z,24.97
2022-09-01T11:14:37.276Z,24.70
2022-09-01T11:15:37.385Z,24.50
2022-09-01T11:16:53.215Z,24.43
2022-09-01T11:17:38.706Z,24.49
2022-09-01T11:18:37.733Z,24.62
2022-09-01T11:19:37.880Z,24.70
2022-09-01T11:20:37.973Z,24.72
2022-09-01T11:21:38.297Z,24.67
2022-09-01T11:22:38.325Z,24.66
2022-09-01T11:23:38.364Z,24.69
2022-09-01T11:24:38.473Z,24.74
2022-09-01T11:25:39.489Z,24.75
2022-09-01T11:26:38.773Z,24.74
2022-09-01T11:27:39.092Z,24.70
2022-09-01T11:28:38.994Z,24.67
2022-09-01T11:29:39.101Z,24.72
2022-09-01T11:30:39.261Z,24.81
2022-09-01T11:31:39.392Z,24.93
2022-09-01T11:32:44.885Z,25.06
2022-09-01T11:33:40.566Z,25.15
2022-09-01T11:34:39.694Z,25.23
2022-09-01T11:35:39.801Z,25.29
2022-09-01T11:36:39.913Z,25.29
2022-09-01T11:37:40.052Z,25.29
2022-09-01T11:38:40.202Z,25.32
2022-09-01T11:39:40.311Z,25.28
2022-09-01T11:40:40.490Z,25.25
2022-09-01T11:41:40.531Z,25.29
2022-09-01T11:42:40.660Z,25.36
2022-09-01T11:43:41.824Z,25.43
2022-09-01T11:44:40.937Z,25.46
2022-09-01T11:45:41.019Z,25.47
2022-09-01T11:46:41.165Z,25.51
2022-09-01T11:47:41.294Z,25.53
2022-09-01T11:48:41.363Z,25.47
2022-09-01T11:49:41.499Z,25.39
2022-09-01T11:50:41.623Z,25.41
2022-09-01T11:51:41.711Z,25.51
2022-09-01T11:52:42.022Z,25.56
2022-09-01T11:53:41.961Z,25.57
2022-09-01T11:54:42.160Z,25.55
2022-09-01T11:55:42.272Z,25.49
2022-09-01T11:56:42.371Z,25.48
2022-09-01T11:57:42.508Z,25.50
2022-09-01T11:58:42.610Z,25.50
2022-09-01T11:59:42.711Z,25.50
2022-09-01T12:00:42.831Z,25.54
2022-09-01T12:01:42.920Z,25.58
2022-09-01T12:02:43.199Z,25.62
2022-09-01T12:03:43.450Z,25.68
2022-09-01T12:04:43.363Z,25.74
2022-09-01T12:05:43.472Z,25.75
2022-09-01T12:06:43.726Z,25.76
2022-09-01T12:07:43.809Z,25.79
2022-09-01T12:08:43.861Z,25.86
2022-09-01T12:09:43.984Z,25.92
2022-09-01T12:10:44.092Z,25.91
2022-09-01T12:11:44.340Z,25.89
2022-09-01T12:12:44.391Z,25.91
2022-09-01T12:13:44.430Z,26.00
2022-09-01T12:15:04.825Z,26.09
2022-09-01T12:16:14.175Z,26.11
2022-09-01T12:16:45.879Z,26.05
2022-09-01T12:17:44.930Z,25.95
2022-09-01T12:18:45.039Z,25.90
2022-09-01T12:19:45.148Z,25.89
2022-09-01T12:20:45.322Z,25.87
2022-09-01T12:21:45.389Z,25.86
2022-09-01T12:22:45.701Z,25.83
2022-09-01T12:23:45.637Z,25.81
2022-09-01T12:24:45.799Z,25.78
2022-09-01T12:25:45.909Z,25.75
2022-09-01T12:26:46.019Z,25.70
2022-09-01T12:27:46.309Z,25.62
2022-09-01T12:28:46.239Z,25.55
2022-09-01T12:29:46.396Z,25.44
2022-09-01T12:30:46.479Z,25.34
2022-09-01T12:31:46.737Z,25.30
2022-09-01T12:32:46.898Z,25.27
2022-09-01T12:33:47.137Z,25.26
2022-09-01T12:34:47.015Z,25.27
2022-09-01T12:35:47.118Z,25.35
2022-09-01T12:37:47.473Z,25.58
2022-09-01T12:38:47.478Z,25.68
2022-09-01T12:39:47.600Z,25.67
2022-09-01T12:40:48.382Z,25.62
2022-09-01T12:41:48.590Z,25.65
2022-09-01T12:42:47.960Z,25.80
2022-09-01T12:43:52.026Z,25.93
2022-09-01T12:44:50.621Z,25.88
2022-09-01T12:45:48.382Z,25.78
2022-09-01T12:46:48.427Z,25.73
2022-09-01T12:47:50.243Z,25.70
2022-09-01T12:48:49.559Z,25.66
2022-09-01T12:49:51.996Z,25.64
2022-09-01T12:50:48.916Z,25.60
2022-09-01T12:51:49.057Z,25.60
2022-09-01T12:52:49.743Z,25.66
2022-09-01T12:53:49.368Z,25.69
2022-09-01T12:54:49.417Z,25.67
2022-09-01T12:55:49.537Z,25.64
2022-09-01T12:56:49.637Z,25.60
2022-09-01T12:57:49.729Z,25.54
2022-09-01T12:58:49.957Z,25.47
2022-09-01T12:59:49.997Z,25.44
2022-09-01T13:00:50.188Z,25.47
2022-09-01T13:01:51.028Z,25.53
2022-09-01T13:02:50.441Z,25.61
2022-09-01T13:03:50.456Z,25.66
2022-09-01T13:04:50.690Z,25.68
2022-09-01T13:05:51.032Z,25.72
2022-09-01T13:06:50.906Z,25.83
2022-09-01T13:07:51.134Z,25.97
2022-09-01T13:08:51.136Z,26.10
2022-09-01T13:09:51.235Z,26.17
2022-09-01T13:10:51.779Z,26.16
2022-09-01T13:12:07.597Z,26.16
2022-09-01T13:12:52.566Z,26.21
2022-09-01T13:13:51.725Z,26.31
2022-09-01T13:14:52.285Z,26.40